< < Back
Terminal Aerodrome Forecast


Current Version              Previous Versions:   1  2  3  4  5  6  7  8  9  

Terminal Aerodrome Forecast

153
FTUS42 KJAX 012300
TAFJAX
TAF
KJAX 012337Z 0200/0224 15004KT P6SM FEW050 SCT250
     FM021700 10009KT P6SM VCTS SCT035CB BKN250=

Latest METAR

387
SAUS80 KWBC 020000 CCA
MTRJAX
METAR KJAX 012356Z 13009KT 10SM FEW034 BKN250 29/22 A2995 RMK AO2 SLP142
CB DSNT NW-N T02940222 10339 20294 53008


USA.gov is the U.S. government's official web portal to all federal, state and local government web resources and services.